Time;durP1;ratioP1;P1;durP2;ratioP2;P2;SDS_P1;SDS_P2;PMS_P1;PMS_P2;Temp;Humidity;BMP_temperature;BMP_pressure;BME280_temperature;BME280_humidity;BME280_pressure;Samples;Min_cycle;Max_cycle;Signal;HPM_P1;HPM_P2
2022/03/20 00:00:55;;;;;;;16.90;6.45;;;;;;;7.03;23.33;100941.87;4486111;31;20355;-77
2022/03/20 00:03:22;;;;;;;15.25;6.60;;;;;;;7.05;23.24;100935.75;4485648;32;20147;-77
2022/03/20 00:05:48;;;;;;;14.98;6.60;;;;;;;7.04;23.42;100934.00;4485978;32;20118;-78
2022/03/20 00:08:14;;;;;;;15.77;6.47;;;;;;;7.04;23.55;100936.62;4499237;31;20151;-79
2022/03/20 00:10:42;;;;;;;16.10;6.65;;;;;;;6.95;23.70;100944.53;4487005;31;20633;-79
2022/03/20 00:13:09;;;;;;;15.40;7.15;;;;;;;6.88;23.49;100950.69;4501637;31;20114;-80
2022/03/20 00:15:40;;;;;;;14.73;5.93;;;;;;;6.92;23.49;100949.78;4487817;31;20099;-79
2022/03/20 00:18:06;;;;;;;15.98;6.18;;;;;;;6.91;23.74;100947.19;4502540;31;20197;-79
2022/03/20 00:20:40;;;;;;;14.63;6.15;;;;;;;6.96;23.21;100946.28;4473176;31;20145;-80
2022/03/20 00:23:10;;;;;;;16.55;6.47;;;;;;;6.78;23.17;100949.88;4484540;31;20104;-79
2022/03/20 00:25:38;;;;;;;17.08;6.28;;;;;;;6.87;23.35;100956.78;4487431;31;20119;-80
2022/03/20 00:28:06;;;;;;;18.70;6.93;;;;;;;6.81;23.61;100952.44;4498680;31;20099;-80
2022/03/20 00:30:32;;;;;;;16.33;6.35;;;;;;;6.69;23.40;100958.63;4487390;31;20104;-79
2022/03/20 00:32:58;;;;;;;14.93;6.37;;;;;;;6.66;23.89;100948.16;4492515;31;20114;-80
2022/03/20 00:35:23;;;;;;;15.85;7.10;;;;;;;6.67;23.88;100954.28;4489038;31;20440;-80
2022/03/20 00:37:49;;;;;;;16.23;6.45;;;;;;;6.54;23.87;100966.53;4488717;31;20110;-78
2022/03/20 00:40:14;;;;;;;14.48;6.40;;;;;;;6.34;24.23;100956.13;4460267;32;20085;-79
2022/03/20 00:42:39;;;;;;;16.77;6.90;;;;;;;6.40;24.10;100965.72;4487187;32;20100;-79
2022/03/20 00:45:05;;;;;;;18.62;6.62;;;;;;;6.12;24.37;100970.97;4489407;31;20107;-79
2022/03/20 00:47:31;;;;;;;14.93;6.20;;;;;;;5.87;24.70;100957.00;4486193;32;20076;-81
2022/03/20 00:49:57;;;;;;;15.60;6.75;;;;;;;6.16;24.37;100957.03;4486150;32;20084;-80
2022/03/20 00:52:22;;;;;;;16.58;6.80;;;;;;;6.23;24.47;100955.25;4485907;32;20101;-77
2022/03/20 00:54:48;;;;;;;16.58;6.43;;;;;;;6.29;24.40;100957.88;4477498;32;20278;-89
2022/03/20 00:57:13;;;;;;;16.58;6.62;;;;;;;6.14;24.67;100957.88;4487384;32;20136;-88
2022/03/20 00:59:39;;;;;;;18.17;7.12;;;;;;;6.22;24.42;100945.66;4470127;32;20466;-87
2022/03/20 01:02:05;;;;;;;15.82;6.72;;;;;;;6.10;25.10;100938.69;4478763;32;20140;-86
2022/03/20 01:04:31;;;;;;;16.90;6.82;;;;;;;5.99;25.13;100943.06;4483647;31;20088;-86
2022/03/20 01:07:01;;;;;;;16.48;7.22;;;;;;;6.10;24.78;100938.69;4485704;31;20088;-88
2022/03/20 01:09:30;;;;;;;15.10;7.03;;;;;;;5.98;24.91;100938.72;4486441;31;20096;-87
2022/03/20 01:11:56;;;;;;;15.77;7.00;;;;;;;6.07;24.89;100944.81;4486266;31;20114;-87
2022/03/20 01:14:23;;;;;;;17.75;7.07;;;;;;;6.05;25.09;100943.97;4486337;32;20117;-86
2022/03/20 01:16:48;;;;;;;17.75;6.85;;;;;;;6.09;25.16;100937.84;4486307;31;20119;-88
2022/03/20 01:19:15;;;;;;;16.67;6.97;;;;;;;6.07;25.18;100946.56;4484897;32;20416;-88
2022/03/20 01:21:41;;;;;;;15.90;6.85;;;;;;;6.09;25.19;100932.59;4486134;31;20104;-88
2022/03/20 01:24:08;;;;;;;19.37;7.00;;;;;;;6.08;25.29;100949.19;4486246;31;20118;-87
2022/03/20 01:26:36;;;;;;;16.73;6.62;;;;;;;6.14;25.50;100939.56;4486258;31;20091;-86
2022/03/20 01:29:04;;;;;;;14.93;6.80;;;;;;;6.12;25.32;100946.56;4486142;31;20388;-86
2022/03/20 01:31:30;;;;;;;17.42;7.50;;;;;;;6.10;25.37;100952.69;4486236;31;20172;-87
2022/03/20 01:33:56;;;;;;;18.98;7.60;;;;;;;5.99;25.78;100950.91;4486228;31;20100;-87
2022/03/20 01:36:21;;;;;;;17.80;7.25;;;;;;;6.04;25.70;100954.41;4485566;31;20110;-86
2022/03/20 01:38:47;;;;;;;17.12;7.40;;;;;;;5.96;26.06;100958.78;4482328;32;20081;-86
2022/03/20 01:41:13;;;;;;;15.95;7.12;;;;;;;6.00;26.01;100960.53;4469346;32;20124;-87
2022/03/20 01:43:59;;;;;;;16.15;6.43;;;;;;;5.94;26.14;100965.75;4470563;32;20729;-88
2022/03/20 01:46:25;;;;;;;16.15;6.78;;;;;;;5.99;26.30;100966.63;4470607;32;20080;-88
2022/03/20 01:48:51;;;;;;;18.65;7.40;;;;;;;5.95;26.29;100970.09;4469052;32;20466;-87
2022/03/20 01:51:17;;;;;;;18.48;7.22;;;;;;;5.96;26.29;100970.13;4470472;32;20089;-86
2022/03/20 01:53:43;;;;;;;18.45;7.80;;;;;;;5.86;26.54;100977.06;4469181;32;20122;-88
2022/03/20 01:56:09;;;;;;;18.08;7.37;;;;;;;5.85;26.49;100979.69;4470074;32;20561;-84
2022/03/20 01:58:35;;;;;;;18.65;7.12;;;;;;;5.76;26.76;100975.34;4470350;32;20477;-85
2022/03/20 02:01:02;;;;;;;16.75;7.12;;;;;;;5.76;26.85;100977.09;4483262;32;20093;-86
2022/03/20 02:03:29;;;;;;;18.05;7.30;;;;;;;5.69;26.94;100977.06;4485998;32;20092;-85
2022/03/20 02:05:55;;;;;;;16.30;7.05;;;;;;;5.77;26.94;100974.44;4485902;32;20139;-86
2022/03/20 02:08:25;;;;;;;17.35;7.45;;;;;;;5.80;26.87;100979.69;4471723;32;20156;-85
2022/03/20 02:10:52;;;;;;;16.98;7.00;;;;;;;5.79;27.04;100979.69;4472290;32;20127;-86
2022/03/20 02:13:22;;;;;;;16.60;6.82;;;;;;;5.53;27.67;100985.78;4471885;32;20114;-86
2022/03/20 02:15:48;;;;;;;17.15;7.28;;;;;;;5.48;27.88;100983.13;4485836;32;20412;-85
2022/03/20 02:18:14;;;;;;;16.73;6.72;;;;;;;5.61;27.99;100988.41;4471216;32;20088;-86
2022/03/20 02:20:40;;;;;;;16.40;7.10;;;;;;;5.60;27.84;100979.69;4471437;32;20139;-86
2022/03/20 03:13:44;;;;;;;19.60;8.90;;;;;;;4.80;31.55;101000.34;4491297;32;207587;-79
2022/03/20 03:16:11;;;;;;;19.15;9.02;;;;;;;4.80;31.55;101000.34;4480314;32;20470;-80
2022/03/20 03:18:39;;;;;;;17.62;8.18;;;;;;;4.55;31.60;101003.72;4459372;32;20089;-78
2022/03/20 03:21:05;;;;;;;19.62;8.23;;;;;;;4.58;31.46;101011.53;4455618;32;20466;-80
2022/03/20 03:23:30;;;;;;;17.40;8.40;;;;;;;4.62;31.74;101013.34;4481568;32;20097;-81
2022/03/20 03:25:57;;;;;;;19.70;8.10;;;;;;;4.67;31.72;101009.84;4481883;32;20131;-80
2022/03/20 03:28:25;;;;;;;16.35;7.90;;;;;;;4.79;31.44;101018.62;4481907;32;20118;-80
2022/03/20 03:30:51;;;;;;;19.08;8.82;;;;;;;4.75;31.75;101017.72;4467874;32;20073;-80
2022/03/20 03:33:18;;;;;;;20.08;8.35;;;;;;;4.77;31.63;101017.75;4467548;32;20422;-80
2022/03/20 03:35:56;;;;;;;21.52;8.82;;;;;;;4.83;31.48;101034.34;4481780;32;20116;-80
2022/03/20 03:38:27;;;;;;;18.25;7.87;;;;;;;4.85;31.48;101031.72;4469049;32;20092;-81
2022/03/20 03:40:56;;;;;;;19.98;8.40;;;;;;;4.88;31.37;101036.94;4467510;32;20101;-80
2022/03/20 03:43:22;;;;;;;18.17;8.10;;;;;;;4.89;31.37;101034.34;4454645;32;20109;-80
2022/03/20 03:45:48;;;;;;;21.70;9.05;;;;;;;4.89;31.53;101039.56;4481534;32;20123;-81
2022/03/20 03:48:14;;;;;;;20.98;8.57;;;;;;;4.95;31.45;101045.72;4467378;32;20131;-81
2022/03/20 03:50:42;;;;;;;17.00;8.15;;;;;;;4.96;31.36;101047.44;4454537;32;20104;-80
2022/03/20 03:53:09;;;;;;;17.65;8.00;;;;;;;4.95;31.36;101046.56;4467282;32;20538;-80
2022/03/20 03:55:35;;;;;;;18.92;8.10;;;;;;;4.86;31.79;101050.00;4481983;32;20356;-79
2022/03/20 03:58:01;;;;;;;18.00;8.38;;;;;;;4.93;31.79;101053.53;4476398;32;20154;-80
2022/03/20 04:00:27;;;;;;;19.85;8.60;;;;;;;4.95;32.07;101053.53;4451954;32;20499;-80
2022/03/20 04:02:53;;;;;;;18.58;8.82;;;;;;;4.92;32.38;101055.28;4465841;32;20093;-80
2022/03/20 04:05:18;;;;;;;19.60;8.43;;;;;;;4.96;32.01;101053.53;4465792;32;20105;-80
2022/03/20 04:07:45;;;;;;;17.83;8.60;;;;;;;4.95;31.92;101057.03;4451744;32;20085;-80
2022/03/20 04:10:11;;;;;;;21.17;8.95;;;;;;;4.90;31.75;101056.97;4451923;32;20089;-80
2022/03/20 04:12:38;;;;;;;19.77;8.90;;;;;;;4.92;31.86;101055.28;4450124;32;20096;-80
2022/03/20 04:15:07;;;;;;;21.70;9.30;;;;;;;4.89;31.99;101057.84;4455340;32;20123;-79
2022/03/20 04:17:33;;;;;;;23.45;8.77;;;;;;;4.87;32.09;101063.94;4428301;32;20085;-80
2022/03/20 04:19:59;;;;;;;19.10;8.35;;;;;;;4.87;32.19;101063.94;4441350;32;20103;-80
2022/03/20 04:22:28;;;;;;;21.05;8.57;;;;;;;4.82;32.41;101071.75;4441280;32;20117;-79
2022/03/20 04:24:54;;;;;;;19.85;8.65;;;;;;;4.78;32.45;101074.34;4455383;32;20093;-79
2022/03/20 04:27:20;;;;;;;19.10;8.38;;;;;;;4.82;32.52;101073.50;4455530;32;20440;-80
2022/03/20 04:29:46;;;;;;;20.33;9.50;;;;;;;4.80;32.73;101075.22;4456350;32;20096;-80
2022/03/20 04:32:13;;;;;;;20.23;8.82;;;;;;;4.78;32.76;101077.81;4470975;32;20115;-80
2022/03/20 04:34:38;;;;;;;20.60;9.32;;;;;;;4.68;32.98;101073.41;4456938;32;20105;-79
2022/03/20 04:37:05;;;;;;;20.88;9.05;;;;;;;4.65;33.10;101079.47;4456398;32;20145;-80
2022/03/20 04:39:35;;;;;;;21.03;8.67;;;;;;;4.60;33.12;101086.41;4470811;32;20073;-79
2022/03/20 04:42:01;;;;;;;18.73;9.15;;;;;;;4.48;33.32;101091.53;4456712;32;20089;-79
2022/03/20 04:44:26;;;;;;;20.35;9.20;;;;;;;4.49;33.41;101093.28;4440836;32;20559;-77
2022/03/20 04:46:53;;;;;;;23.30;9.63;;;;;;;4.45;33.49;101086.31;4441094;32;20122;-78
2022/03/20 05:00:14;;;;;;;19.40;8.65;;;;;;;4.32;34.04;101122.72;4455291;32;20379;-79
2022/03/20 05:02:40;;;;;;;23.12;10.45;;;;;;;4.36;34.22;101118.41;4428070;32;20124;-78
2022/03/20 05:05:06;;;;;;;19.00;8.90;;;;;;;4.36;34.32;101127.97;4455040;32;20466;-79
2022/03/20 05:07:32;;;;;;;20.70;9.40;;;;;;;4.45;33.94;101117.63;4440970;32;20092;-80
2022/03/20 05:15:30;;;;;;;21.42;9.77;;;;;;;4.47;34.11;101119.38;4443137;32;20169;-80
2022/03/20 05:17:56;;;;;;;20.70;8.80;;;;;;;4.52;34.04;101129.88;4440839;32;20387;-79
2022/03/20 05:20:23;;;;;;;19.62;9.35;;;;;;;4.52;34.11;101132.47;4428136;32;20113;-80
2022/03/20 05:22:49;;;;;;;19.85;9.68;;;;;;;4.63;34.02;101128.19;4440639;32;20128;-80
2022/03/20 05:25:16;;;;;;;21.10;9.20;;;;;;;4.71;33.85;101125.63;4427147;32;20109;-80
2022/03/20 05:27:41;;;;;;;20.67;8.75;;;;;;;4.68;33.95;101138.69;4440867;32;20146;-80
2022/03/20 05:30:07;;;;;;;20.85;9.50;;;;;;;4.83;33.92;101144.00;4455031;32;20100;-79
2022/03/20 05:32:35;;;;;;;19.95;8.50;;;;;;;4.95;33.66;101132.78;4441079;32;20523;-80
2022/03/20 05:35:02;;;;;;;19.80;8.82;;;;;;;4.96;33.51;101126.66;4428070;32;20165;-80
2022/03/20 05:37:30;;;;;;;19.45;8.85;;;;;;;5.10;33.36;101135.47;4455081;32;20120;-80
2022/03/20 05:39:55;;;;;;;22.80;9.45;;;;;;;5.28;32.94;101126.84;4447896;32;20092;-79
2022/03/20 05:42:21;;;;;;;18.67;8.77;;;;;;;5.32;32.62;101131.22;4455973;32;20105;-80
2022/03/20 05:44:46;;;;;;;22.20;8.80;;;;;;;5.44;32.81;101138.22;4470614;32;20459;-79
2022/03/20 05:47:12;;;;;;;22.55;9.57;;;;;;;5.49;32.68;101149.59;4456140;32;20401;-78
2022/03/20 05:49:38;;;;;;;21.98;8.95;;;;;;;5.68;32.27;101147.94;4456356;32;20088;-78
2022/03/20 05:52:05;;;;;;;21.23;9.25;;;;;;;5.61;32.56;101153.13;4456500;32;20162;-79
2022/03/20 05:54:30;;;;;;;19.67;8.85;;;;;;;5.77;32.11;101149.69;4470266;32;20493;-78
2022/03/20 05:59:39;;;;;;;20.92;9.82;;;;;;;5.98;32.18;101155.87;4458316;32;20881;-80
2022/03/20 06:02:09;;;;;;;19.65;9.50;;;;;;;6.02;32.25;101174.19;4460108;32;20156;-80
2022/03/20 06:04:35;;;;;;;21.50;9.68;;;;;;;6.14;31.64;101180.34;4469814;32;20100;-80
2022/03/20 06:07:01;;;;;;;18.30;8.85;;;;;;;6.06;32.01;101173.34;4455867;32;20458;-80
2022/03/20 06:09:27;;;;;;;19.92;9.77;;;;;;;6.24;31.63;101171.66;4469904;32;20119;-80
2022/03/20 06:11:53;;;;;;;21.95;9.90;;;;;;;6.36;31.23;101179.50;4455799;32;20113;-80
2022/03/20 06:14:19;;;;;;;19.37;9.43;;;;;;;6.35;31.15;101179.50;4470311;32;20080;-80
2022/03/20 06:16:47;;;;;;;17.87;8.55;;;;;;;6.45;31.14;101179.53;4436993;32;20379;-80
2022/03/20 06:19:15;;;;;;;22.52;9.15;;;;;;;6.47;30.67;101185.63;4463508;32;20115;-80
2022/03/20 06:21:41;;;;;;;19.42;9.50;;;;;;;6.63;30.47;101196.13;4458366;32;20116;-80
2022/03/20 06:24:07;;;;;;;19.17;8.98;;;;;;;6.84;30.22;101196.09;4467386;32;20101;-79
2022/03/20 06:26:33;;;;;;;21.42;9.88;;;;;;;6.78;30.25;101203.09;4471479;32;20084;-80
2022/03/20 06:28:59;;;;;;;20.50;9.32;;;;;;;7.00;29.91;101202.19;4471139;32;20096;-80
2022/03/20 06:31:24;;;;;;;19.23;9.20;;;;;;;7.13;29.83;101194.31;4471118;32;20093;-81
2022/03/20 06:33:50;;;;;;;20.62;9.07;;;;;;;7.13;29.88;101202.19;4471320;32;20340;-81
2022/03/20 06:36:15;;;;;;;21.25;9.75;;;;;;;7.29;29.46;101201.28;4454447;32;20147;-81
2022/03/20 06:38:41;;;;;;;17.00;8.35;;;;;;;7.28;29.59;101204.75;4470270;32;20101;-82
2022/03/20 06:41:08;;;;;;;18.80;8.93;;;;;;;7.38;29.26;101213.47;4457252;32;20133;-81
2022/03/20 06:43:36;;;;;;;19.85;9.38;;;;;;;7.57;28.75;101214.31;4455454;32;20126;-80
2022/03/20 06:46:03;;;;;;;19.12;8.77;;;;;;;7.55;29.09;101214.34;4465712;32;20081;-81
2022/03/20 06:48:28;;;;;;;19.10;8.88;;;;;;;7.61;28.78;101221.28;4469573;32;20104;-81
2022/03/20 06:50:54;;;;;;;19.65;8.73;;;;;;;7.90;28.52;101222.94;4470317;32;20119;-82
2022/03/20 06:53:19;;;;;;;17.98;9.15;;;;;;;7.80;28.50;101222.09;4456805;32;20480;-81
2022/03/20 06:55:46;;;;;;;19.12;9.55;;;;;;;7.79;28.88;101225.62;4470867;32;20127;-80
2022/03/20 06:58:13;;;;;;;18.30;9.02;;;;;;;7.74;28.36;101230.88;4450650;32;20123;-81
2022/03/20 07:00:39;;;;;;;17.25;8.18;;;;;;;7.95;28.24;101229.03;4443803;32;20101;-79
2022/03/20 07:03:06;;;;;;;18.10;8.68;;;;;;;7.94;28.04;101233.44;4456108;32;20135;-83
2022/03/20 07:05:32;;;;;;;17.62;7.95;;;;;;;8.06;27.82;101243.00;4447493;32;20204;-81
2022/03/20 07:07:59;;;;;;;18.67;8.40;;;;;;;8.35;27.43;101232.31;4465180;32;20141;-80
2022/03/20 07:10:25;;;;;;;16.92;7.87;;;;;;;8.38;27.42;101234.94;4460255;32;20164;-80
2022/03/20 07:12:51;;;;;;;18.52;9.00;;;;;;;8.35;27.70;101241.97;4457388;32;20134;-80
2022/03/20 07:15:20;;;;;;;18.42;8.90;;;;;;;8.31;27.63;101251.63;4460028;32;20473;-86
2022/03/20 07:17:47;;;;;;;19.20;8.70;;;;;;;8.62;27.30;101247.06;4456494;32;20077;-84
2022/03/20 07:20:14;;;;;;;20.85;8.55;;;;;;;8.79;26.90;101248.72;4459395;32;20553;-88
2022/03/20 07:22:39;;;;;;;17.67;8.77;;;;;;;8.82;26.35;101236.38;4448767;32;20097;-86
2022/03/20 07:30:41;;;;;;;18.10;8.23;;;;;;;8.98;26.21;101241.53;4410608;32;20097;-77
2022/03/20 07:33:06;;;;;;;16.48;8.00;;;;;;;8.69;26.61;101250.50;4419563;32;20121;-76
2022/03/20 07:35:32;;;;;;;19.73;9.30;;;;;;;8.79;26.35;101251.34;4405862;32;20133;-77
2022/03/20 07:37:57;;;;;;;17.58;8.05;;;;;;;9.07;26.25;101245.84;4417170;32;20220;-78
2022/03/20 07:40:23;;;;;;;16.35;7.80;;;;;;;9.16;26.25;101251.88;4406691;32;20129;-77
2022/03/20 07:42:48;;;;;;;18.80;8.55;;;;;;;9.55;25.74;101244.47;4411834;32;20174;-80
2022/03/20 07:45:14;;;;;;;17.48;7.87;;;;;;;9.55;25.20;101248.88;4414994;32;20121;-78
2022/03/20 07:47:39;;;;;;;17.87;8.55;;;;;;;9.74;25.29;101254.81;4419204;32;20101;-79
2022/03/20 07:50:08;;;;;;;18.10;8.18;;;;;;;9.94;24.91;101241.41;4420878;32;20118;-82
2022/03/20 07:52:38;;;;;;;16.83;7.68;;;;;;;10.17;24.53;101241.09;4393940;32;20504;-81
2022/03/20 07:55:04;;;;;;;14.18;7.50;;;;;;;10.26;24.18;101240.97;4414125;32;20225;-80
2022/03/20 07:57:30;;;;;;;16.27;7.37;;;;;;;10.24;24.19;101241.00;4395442;32;20160;-79
2022/03/20 07:59:56;;;;;;;15.75;7.70;;;;;;;10.43;23.81;101233.75;4394505;32;20169;-81
2022/03/20 08:02:23;;;;;;;16.02;7.87;;;;;;;10.53;23.82;101238.88;4406851;32;20142;-81
2022/03/20 08:04:49;;;;;;;15.50;7.35;;;;;;;10.47;23.60;101237.19;4440083;32;20402;-81
2022/03/20 08:07:14;;;;;;;19.37;8.32;;;;;;;10.41;23.58;101240.78;4471949;32;20080;-81
2022/03/20 08:09:39;;;;;;;16.73;7.40;;;;;;;10.38;23.54;101242.59;4457875;32;20106;-80
2022/03/20 08:12:07;;;;;;;16.87;7.93;;;;;;;10.32;23.44;101233.00;4457760;32;20088;-80
2022/03/20 08:14:35;;;;;;;17.55;8.45;;;;;;;10.28;23.79;101238.31;4465524;32;20120;-81
2022/03/20 08:17:00;;;;;;;15.27;7.47;;;;;;;10.59;23.62;101241.41;4462162;32;20096;-79
2022/03/20 08:19:25;;;;;;;16.17;7.45;;;;;;;10.56;23.46;101231.75;4456598;32;20203;-81
2022/03/20 08:21:51;;;;;;;16.20;7.65;;;;;;;10.53;23.65;101239.75;4442315;32;20093;-81
2022/03/20 08:24:17;;;;;;;15.80;8.07;;;;;;;10.32;23.57;101237.41;4442491;32;20100;-80
2022/03/20 08:26:43;;;;;;;18.87;7.90;;;;;;;10.57;23.58;101230.03;4456364;32;20122;-81
2022/03/20 08:29:11;;;;;;;16.92;7.87;;;;;;;10.67;23.61;101233.37;4468816;32;20432;-80
2022/03/20 08:31:37;;;;;;;15.82;7.50;;;;;;;10.81;23.38;101228.75;4457833;32;20104;-80
2022/03/20 08:34:04;;;;;;;17.98;8.30;;;;;;;10.73;23.44;101236.78;4457856;32;20149;-80
2022/03/20 08:36:29;;;;;;;17.42;8.55;;;;;;;10.67;23.38;101242.16;4471957;32;20111;-80
2022/03/20 08:38:55;;;;;;;17.58;7.62;;;;;;;10.92;23.34;101241.78;4446341;32;20109;-80
2022/03/20 08:41:20;;;;;;;15.30;7.47;;;;;;;11.01;23.45;101228.44;4442159;32;20148;-80
2022/03/20 08:43:46;;;;;;;17.98;7.70;;;;;;;11.14;23.00;101229.94;4442356;32;20139;-80
2022/03/20 08:46:11;;;;;;;16.55;8.05;;;;;;;10.99;23.27;101228.47;4456521;32;20101;-80
2022/03/20 08:48:38;;;;;;;17.30;8.05;;;;;;;11.03;22.92;101239.81;4451062;32;20144;-78
2022/03/20 08:51:04;;;;;;;16.65;7.68;;;;;;;11.17;23.13;101240.44;4471960;32;20707;-80
2022/03/20 08:53:29;;;;;;;15.25;6.95;;;;;;;11.01;23.09;101233.72;4457501;32;20115;-80
2022/03/20 08:55:55;;;;;;;14.20;7.30;;;;;;;11.30;22.69;101225.28;4471739;32;20076;-79
2022/03/20 08:58:20;;;;;;;15.88;7.50;;;;;;;11.25;22.91;101223.63;4464586;32;20097;-80
2022/03/20 09:00:46;;;;;;;16.25;7.15;;;;;;;11.45;22.55;101228.50;4455952;32;20082;-80
2022/03/20 09:03:13;;;;;;;15.70;7.28;;;;;;;11.43;22.48;101228.53;4441790;32;20093;-80
2022/03/20 09:05:39;;;;;;;13.37;6.60;;;;;;;11.69;22.14;101224.53;4456292;32;20138;-80
2022/03/20 09:08:05;;;;;;;15.48;7.18;;;;;;;11.79;22.10;101218.16;4460541;32;20470;-81
2022/03/20 09:10:30;;;;;;;14.00;6.55;;;;;;;11.64;22.16;101229.87;4471769;32;20115;-81
2022/03/20 09:12:58;;;;;;;15.85;6.97;;;;;;;11.60;22.15;101226.44;4457420;32;20408;-80
2022/03/20 09:15:24;;;;;;;15.80;6.37;;;;;;;11.47;22.10;101227.56;4471762;32;20084;-80
2022/03/20 09:20:36;;;;;;;14.45;6.82;;;;;;;11.26;22.42;101222.69;4444284;32;20123;-79
2022/03/20 09:23:02;;;;;;;13.80;6.28;;;;;;;11.27;22.80;101217.41;4442095;32;20092;-80
2022/03/20 09:25:27;;;;;;;13.93;6.25;;;;;;;11.28;22.59;101216.50;4441894;32;20092;-80
2022/03/20 09:27:52;;;;;;;13.88;6.53;;;;;;;11.36;22.49;101213.72;4458728;32;20113;-81
2022/03/20 09:30:21;;;;;;;16.98;6.78;;;;;;;11.23;22.09;101207.81;4471610;32;20450;-81
2022/03/20 09:32:48;;;;;;;15.23;6.60;;;;;;;11.21;22.00;101214.88;4471423;32;20232;-81
2022/03/20 09:35:14;;;;;;;13.80;6.20;;;;;;;11.21;21.71;101212.25;4457485;32;20093;-80
2022/03/20 09:37:39;;;;;;;13.57;6.15;;;;;;;11.20;21.83;101213.13;4455648;32;20097;-80
2022/03/20 09:40:06;;;;;;;14.40;6.57;;;;;;;11.27;22.16;101203.34;4455849;32;20093;-80
2022/03/20 09:42:32;;;;;;;16.85;7.10;;;;;;;11.28;22.13;101207.72;4455796;32;20089;-79
2022/03/20 09:44:57;;;;;;;15.00;6.85;;;;;;;11.25;22.14;101213.06;4455997;32;20436;-80
2022/03/20 09:47:26;;;;;;;14.60;6.65;;;;;;;11.23;22.35;101207.81;4455925;32;20093;-80
2022/03/20 09:49:52;;;;;;;13.07;5.82;;;;;;;11.34;22.22;101210.25;4442374;32;20112;-81
2022/03/20 09:52:18;;;;;;;14.67;6.67;;;;;;;11.40;22.04;101218.06;4429022;32;20456;-81
2022/03/20 09:54:44;;;;;;;14.27;7.15;;;;;;;11.48;21.99;101216.13;4456077;32;20149;-81
2022/03/20 09:57:10;;;;;;;16.17;6.85;;;;;;;11.60;21.86;101220.28;4441835;32;20152;-80
2022/03/20 09:59:38;;;;;;;16.05;6.55;;;;;;;11.38;21.91;101217.22;4468872;32;20153;-80
2022/03/20 10:02:05;;;;;;;15.18;6.47;;;;;;;11.30;21.88;101213.81;4471167;32;20621;-80
2022/03/20 10:04:34;;;;;;;15.52;7.00;;;;;;;10.97;22.34;101219.69;4471237;32;20481;-81
2022/03/20 10:07:00;;;;;;;14.82;6.70;;;;;;;11.15;22.27;101212.34;4464282;32;20093;-81
2022/03/20 10:09:26;;;;;;;14.63;6.65;;;;;;;10.94;22.39;101197.78;4441846;32;20124;-81
2022/03/20 10:11:54;;;;;;;13.93;6.32;;;;;;;11.02;22.41;101195.87;4438399;32;20422;-80
2022/03/20 10:14:30;;;;;;;15.48;6.72;;;;;;;10.98;22.48;101212.66;4439277;32;20104;-79
2022/03/20 10:17:17;;;;;;;15.07;6.90;;;;;;;11.04;22.57;101198.47;4445570;32;20112;-80
2022/03/20 10:19:43;;;;;;;16.12;6.93;;;;;;;11.21;22.28;101199.06;4454627;32;20131;-80
2022/03/20 10:22:17;;;;;;;15.23;6.85;;;;;;;11.07;22.37;101201.06;4441497;32;20562;-81
2022/03/20 10:24:50;;;;;;;15.13;6.72;;;;;;;11.01;22.15;101196.78;4454645;32;20077;-80
2022/03/20 10:27:16;;;;;;;13.30;6.18;;;;;;;10.95;22.28;101194.22;4448792;32;20498;-81
2022/03/20 10:29:53;;;;;;;16.12;6.72;;;;;;;10.88;22.80;101187.34;4440435;32;20093;-81
2022/03/20 10:32:19;;;;;;;15.38;6.68;;;;;;;11.05;22.75;101189.66;4439322;32;20115;-81
2022/03/20 10:34:58;;;;;;;13.75;6.50;;;;;;;10.93;22.76;101196.91;4439191;32;20436;-81
2022/03/20 10:37:43;;;;;;;15.80;6.87;;;;;;;11.17;22.50;101181.53;4439568;32;20121;-79
2022/03/20 10:40:15;;;;;;;14.23;6.55;;;;;;;11.10;22.00;101178.12;4438822;32;20157;-80
2022/03/20 10:42:42;;;;;;;16.62;7.03;;;;;;;10.97;22.38;101176.59;4440055;32;20147;-81
2022/03/20 10:45:08;;;;;;;15.50;7.03;;;;;;;11.00;22.53;101181.84;4440206;32;20103;-80
2022/03/20 10:47:34;;;;;;;14.55;6.62;;;;;;;11.05;22.45;101182.63;4439597;32;20109;-81
2022/03/20 10:50:08;;;;;;;14.32;6.87;;;;;;;11.03;22.05;101184.44;4438764;32;20410;-81
2022/03/20 10:52:37;;;;;;;15.43;6.75;;;;;;;10.83;22.45;101187.41;4438754;32;20111;-80
2022/03/20 10:55:10;;;;;;;14.30;6.78;;;;;;;10.92;22.33;101184.62;4438750;32;20113;-81
2022/03/20 10:57:36;;;;;;;16.80;7.15;;;;;;;10.75;22.79;101186.66;4443891;32;20105;-80
2022/03/20 11:00:07;;;;;;;14.50;7.15;;;;;;;10.68;22.60;101178.00;4454072;32;20123;-80
2022/03/20 11:02:36;;;;;;;15.40;7.15;;;;;;;10.85;22.43;101180.34;4454873;32;20763;-79
2022/03/20 11:05:01;;;;;;;14.63;7.05;;;;;;;10.66;22.72;101177.13;4454187;32;20089;-81
2022/03/20 11:07:27;;;;;;;16.50;6.95;;;;;;;10.63;22.34;101172.78;4453979;32;20153;-80
2022/03/20 11:09:54;;;;;;;14.25;7.30;;;;;;;10.52;22.41;101168.59;4453818;32;20131;-80
2022/03/20 11:12:32;;;;;;;15.07;6.85;;;;;;;10.54;22.54;101167.66;4453679;32;20085;-80
2022/03/20 11:14:59;;;;;;;16.60;7.65;;;;;;;10.40;22.62;101165.25;4438971;32;20521;-80
2022/03/20 11:17:27;;;;;;;16.12;7.40;;;;;;;10.47;22.69;101159.88;4439550;32;20092;-80
2022/03/20 11:19:54;;;;;;;16.95;7.50;;;;;;;10.65;22.64;101158.72;4438310;32;20100;-81
2022/03/20 11:22:21;;;;;;;15.77;7.25;;;;;;;10.56;22.78;101157.97;4438312;32;20508;-80
2022/03/20 11:24:48;;;;;;;14.98;6.30;;;;;;;10.55;23.35;101148.34;4451559;32;20115;-80
2022/03/20 11:27:27;;;;;;;15.50;6.03;;;;;;;10.74;23.33;101146.25;4455924;32;20112;-79
2022/03/20 11:30:05;;;;;;;14.32;6.62;;;;;;;10.87;22.31;101140.75;4456877;32;20122;-80
2022/03/20 11:32:30;;;;;;;15.25;6.85;;;;;;;10.85;21.83;101148.69;4455698;32;20496;-81
2022/03/20 11:34:56;;;;;;;15.02;6.50;;;;;;;10.86;21.69;101132.00;4455463;32;20104;-81
2022/03/20 11:37:22;;;;;;;15.07;6.35;;;;;;;10.85;21.39;101119.69;4455448;32;20464;-81
2022/03/20 11:40:07;;;;;;;13.88;6.45;;;;;;;10.54;21.86;101130.78;4456832;32;20097;-81
2022/03/20 11:42:33;;;;;;;15.65;6.70;;;;;;;10.48;22.10;101117.69;4456657;32;20432;-80
2022/03/20 11:45:04;;;;;;;14.55;5.97;;;;;;;10.61;21.94;101116.59;4442123;32;20077;-80
2022/03/20 11:47:31;;;;;;;15.23;6.25;;;;;;;10.73;21.61;101119.91;4439946;32;20105;-80
2022/03/20 11:50:17;;;;;;;12.80;6.03;;;;;;;10.81;21.83;101103.03;4441633;32;20098;-80
2022/03/20 11:52:48;;;;;;;14.27;5.68;;;;;;;10.99;21.96;101098.31;4440285;32;20844;-80
2022/03/20 11:55:35;;;;;;;16.52;6.43;;;;;;;11.37;21.21;101091.41;4456282;32;20088;-80
2022/03/20 11:58:05;;;;;;;15.95;6.50;;;;;;;11.25;21.21;101089.03;4451219;32;20085;-80
2022/03/20 12:00:33;;;;;;;14.38;6.50;;;;;;;11.42;20.83;101092.19;4439954;32;20143;-79
2022/03/20 12:03:10;;;;;;;14.35;6.12;;;;;;;11.23;20.74;101096.12;4440959;32;20471;-81
2022/03/20 12:05:59;;;;;;;15.13;6.05;;;;;;;11.47;20.68;101092.09;4440001;32;20089;-80
2022/03/20 12:08:35;;;;;;;14.32;6.35;;;;;;;11.68;20.64;101080.19;4439099;32;20491;-81
2022/03/20 12:11:26;;;;;;;14.35;6.12;;;;;;;11.56;20.84;101095.41;4441137;32;20124;-80
2022/03/20 12:13:57;;;;;;;15.05;6.65;;;;;;;11.69;20.36;101085.44;4450588;32;20148;-81
2022/03/20 12:16:42;;;;;;;13.40;5.72;;;;;;;11.96;20.25;101083.12;4456417;32;20097;-81
2022/03/20 12:19:11;;;;;;;13.35;5.90;;;;;;;11.90;19.89;101078.84;4456577;32;20468;-80
2022/03/20 12:21:58;;;;;;;12.75;5.40;;;;;;;12.02;19.54;101077.69;4456454;32;20089;-79
2022/03/20 12:24:35;;;;;;;13.23;5.32;;;;;;;12.17;19.27;101081.75;4453847;32;20114;-80
2022/03/20 12:27:19;;;;;;;11.93;5.00;;;;;;;12.26;19.45;101078.00;4456462;32;20148;-80
2022/03/20 12:29:45;;;;;;;13.10;5.47;;;;;;;12.56;19.79;101066.63;4455124;32;20227;-81
2022/03/20 12:32:15;;;;;;;14.32;5.62;;;;;;;12.48;19.56;101065.13;4455216;32;20117;-80
2022/03/20 12:34:45;;;;;;;13.18;5.60;;;;;;;12.44;19.62;101061.69;4439497;32;20392;-81
2022/03/20 12:37:31;;;;;;;12.20;5.03;;;;;;;12.53;19.33;101063.19;4440997;32;20081;-81
2022/03/20 12:40:02;;;;;;;11.05;4.90;;;;;;;12.56;19.21;101066.63;4440815;32;20089;-81
2022/03/20 12:42:29;;;;;;;12.27;5.22;;;;;;;12.47;18.53;101052.78;4441132;32;20527;-80